createdAt,value
2022-08-11T00:02:57.173Z,14.61
2022-08-11T00:06:02.267Z,14.54
2022-08-11T00:09:08.022Z,14.48
2022-08-11T00:12:15.180Z,14.50
2022-08-11T00:15:18.017Z,14.44
2022-08-11T00:18:21.159Z,14.50
2022-08-11T00:22:02.099Z,14.57
2022-08-11T00:24:53.914Z,14.57
2022-08-11T00:27:57.608Z,14.54
2022-08-11T00:31:04.725Z,14.45
2022-08-11T00:34:12.341Z,14.35
2022-08-11T00:37:22.456Z,14.28
2022-08-11T00:40:34.594Z,14.26
2022-08-11T00:43:48.933Z,14.22
2022-08-11T00:47:00.726Z,14.10
2022-08-11T00:50:13.019Z,14.03
2022-08-11T00:53:35.898Z,14.08
2022-08-11T00:57:36.959Z,14.15
2022-08-11T01:00:58.751Z,14.20
2022-08-11T01:04:24.619Z,14.29
2022-08-11T01:08:02.741Z,14.34
2022-08-11T01:11:55.432Z,14.27
2022-08-11T01:15:40.235Z,14.17
2022-08-11T01:19:21.733Z,14.09
2022-08-11T01:23:00.500Z,14.04
2022-08-11T01:27:00.561Z,14.02
2022-08-11T01:30:42.607Z,14.03
2022-08-11T01:34:21.905Z,14.10
2022-08-11T01:38:08.089Z,14.13
2022-08-11T01:41:47.996Z,14.07
2022-08-11T01:45:07.220Z,13.87
2022-08-11T01:48:20.638Z,13.82
2022-08-11T01:51:34.079Z,13.83
2022-08-11T01:54:45.606Z,13.67
2022-08-11T01:57:57.781Z,13.48
2022-08-11T02:01:11.789Z,13.30
2022-08-11T02:04:25.735Z,13.16
2022-08-11T02:07:33.705Z,13.07
2022-08-11T02:11:04.602Z,13.01
2022-08-11T02:14:25.569Z,12.98
2022-08-11T02:17:48.335Z,12.94
2022-08-11T02:21:15.456Z,12.90
2022-08-11T02:24:24.679Z,12.85
2022-08-11T02:27:40.929Z,12.95
2022-08-11T02:32:10.903Z,13.14
2022-08-11T02:34:59.492Z,13.26
2022-08-11T02:38:19.540Z,13.36
2022-08-11T02:41:44.361Z,13.42
2022-08-11T02:45:03.630Z,13.51
2022-08-11T02:48:40.019Z,13.59
2022-08-11T02:51:55.786Z,13.69
2022-08-11T02:55:44.574Z,13.64
2022-08-11T02:59:12.282Z,13.66
2022-08-11T03:02:33.149Z,13.70
2022-08-11T03:06:05.916Z,13.82
2022-08-11T03:09:19.869Z,13.75
2022-08-11T03:12:53.541Z,13.66
2022-08-11T03:16:32.025Z,13.47
2022-08-11T03:19:47.614Z,13.29
2022-08-11T03:22:59.956Z,13.20
2022-08-11T03:26:06.890Z,13.13
2022-08-11T03:29:18.169Z,13.10
2022-08-11T03:32:27.679Z,13.04
2022-08-11T03:35:37.465Z,12.99
2022-08-11T03:38:52.746Z,12.92
2022-08-11T03:42:06.770Z,12.84
2022-08-11T03:45:23.799Z,12.83
2022-08-11T03:48:39.507Z,12.84
2022-08-11T03:51:54.287Z,12.91
2022-08-11T03:55:10.870Z,12.96
2022-08-11T03:58:53.027Z,13.21
2022-08-11T04:02:17.474Z,13.43
2022-08-11T04:06:09.322Z,13.48
2022-08-11T04:09:46.507Z,13.58
2022-08-11T04:13:33.770Z,14.16
2022-08-11T04:16:44.350Z,14.15
2022-08-11T04:20:27.303Z,14.25
2022-08-11T04:24:35.223Z,14.97
2022-08-11T04:28:00.192Z,15.86
2022-08-11T04:31:50.767Z,16.47
2022-08-11T04:35:00.371Z,16.65
2022-08-11T04:38:39.474Z,18.00
2022-08-11T04:42:44.874Z,19.37
2022-08-11T04:46:07.395Z,20.11
2022-08-11T04:50:00.790Z,20.59
2022-08-11T04:53:53.652Z,21.19
2022-08-11T04:57:20.070Z,21.61
2022-08-11T05:00:48.546Z,22.17
2022-08-11T05:04:27.802Z,22.34
2022-08-11T05:08:12.866Z,22.97
2022-08-11T05:11:36.546Z,22.54
2022-08-11T05:15:06.249Z,22.16
2022-08-11T05:18:33.246Z,22.39
2022-08-11T05:21:54.838Z,22.39
2022-08-11T05:26:43.909Z,22.52
2022-08-11T05:29:19.777Z,23.10
2022-08-11T05:32:42.345Z,23.19
2022-08-11T05:36:00.080Z,23.04
2022-08-11T05:39:33.958Z,23.08
2022-08-11T05:43:01.978Z,23.16
2022-08-11T05:46:26.186Z,22.35
2022-08-11T05:49:49.538Z,22.14
2022-08-11T05:53:12.171Z,21.86
2022-08-11T05:56:18.761Z,21.60
2022-08-11T05:59:23.386Z,21.17
2022-08-11T06:02:28.342Z,21.09
2022-08-11T06:05:38.555Z,21.30
2022-08-11T06:08:47.317Z,21.45
2022-08-11T06:11:50.143Z,21.62
2022-08-11T06:14:56.651Z,21.64
2022-08-11T06:18:03.767Z,21.90
2022-08-11T06:21:12.112Z,22.05
2022-08-11T06:24:16.162Z,22.08
2022-08-11T06:27:21.641Z,22.56
2022-08-11T06:30:39.671Z,23.12
2022-08-11T06:33:55.101Z,23.49
2022-08-11T06:37:12.843Z,23.89
2022-08-11T06:40:30.390Z,23.79
2022-08-11T06:43:55.229Z,24.24
2022-08-11T06:47:07.708Z,24.25
2022-08-11T06:50:29.898Z,24.42
2022-08-11T06:53:34.416Z,24.53
2022-08-11T06:57:27.934Z,24.77
2022-08-11T07:00:29.118Z,24.90
2022-08-11T07:03:43.876Z,25.58
2022-08-11T07:07:27.785Z,25.60
2022-08-11T07:11:08.885Z,26.07
2022-08-11T07:14:32.769Z,26.06
2022-08-11T07:17:43.589Z,26.68
2022-08-11T07:21:04.826Z,26.94
2022-08-11T07:24:59.338Z,27.16
2022-08-11T07:28:28.091Z,27.75
2022-08-11T07:31:36.827Z,28.03
2022-08-11T07:34:45.581Z,28.53
2022-08-11T07:38:01.653Z,28.24
2022-08-11T07:41:07.101Z,29.06
2022-08-11T07:44:11.740Z,29.16
2022-08-11T07:47:33.299Z,29.42
2022-08-11T07:50:56.247Z,29.66
2022-08-11T07:54:16.177Z,29.76
2022-08-11T07:58:10.259Z,30.62
2022-08-11T08:01:22.341Z,30.77
2022-08-11T08:04:46.824Z,30.95
2022-08-11T08:08:07.637Z,30.55
2022-08-11T08:11:27.971Z,30.50
2022-08-11T08:14:50.046Z,30.98
2022-08-11T08:18:21.036Z,31.90
2022-08-11T08:21:16.917Z,32.20
2022-08-11T08:24:21.042Z,32.43
2022-08-11T08:27:25.853Z,32.72
2022-08-11T08:30:51.670Z,32.94
2022-08-11T08:33:54.658Z,32.77
2022-08-11T08:36:57.529Z,32.47
2022-08-11T08:40:00.203Z,32.52
2022-08-11T08:43:08.453Z,32.31
2022-08-11T08:46:14.526Z,30.46
2022-08-11T08:49:22.946Z,30.27
2022-08-11T08:52:33.456Z,30.73
2022-08-11T08:55:43.633Z,31.36
2022-08-11T08:58:51.745Z,31.66
2022-08-11T09:01:59.176Z,32.33
2022-08-11T09:05:03.775Z,32.05
2022-08-11T09:08:07.825Z,32.09
2022-08-11T09:11:29.763Z,31.87
2022-08-11T09:14:50.185Z,32.09
2022-08-11T09:18:01.391Z,32.24
2022-08-11T09:21:04.924Z,33.00
2022-08-11T09:24:26.529Z,32.91
2022-08-11T09:27:29.512Z,32.72
2022-08-11T09:30:32.773Z,33.22
2022-08-11T09:33:37.577Z,32.30
2022-08-11T09:37:01.878Z,33.29
2022-08-11T09:40:22.727Z,32.58
2022-08-11T09:43:48.074Z,32.62
2022-08-11T09:46:52.315Z,33.17
2022-08-11T09:50:01.889Z,32.72
2022-08-11T09:53:36.808Z,31.95
2022-08-11T09:56:47.776Z,31.75
2022-08-11T09:59:53.049Z,32.40
2022-08-11T10:03:19.016Z,32.14
2022-08-11T10:06:40.661Z,32.92
2022-08-11T10:09:50.121Z,33.57
2022-08-11T10:12:59.742Z,33.46
2022-08-11T10:16:16.230Z,32.57
2022-08-11T10:19:22.125Z,33.43
2022-08-11T10:22:43.788Z,32.66
2022-08-11T10:26:05.209Z,32.27
2022-08-11T10:29:33.407Z,32.34
2022-08-11T10:33:00.138Z,32.69
2022-08-11T10:36:06.015Z,31.62
2022-08-11T10:39:23.049Z,32.81
2022-08-11T10:42:57.119Z,33.33
2022-08-11T10:46:18.841Z,32.88
2022-08-11T10:49:33.615Z,31.97
2022-08-11T10:52:55.458Z,33.04
2022-08-11T10:56:18.102Z,32.66
2022-08-11T10:59:23.129Z,33.57
2022-08-11T11:02:27.337Z,32.81
2022-08-11T11:05:32.455Z,33.05
2022-08-11T11:08:57.694Z,33.19
2022-08-11T11:12:29.797Z,32.41
2022-08-11T11:15:53.038Z,32.68
2022-08-11T11:19:01.031Z,32.43
2022-08-11T11:22:24.346Z,33.04
2022-08-11T11:26:05.554Z,33.21
2022-08-11T11:29:25.109Z,33.36
2022-08-11T11:32:33.888Z,32.96
2022-08-11T11:35:50.538Z,33.14
2022-08-11T11:38:56.494Z,33.47
2022-08-11T11:42:01.747Z,33.77
2022-08-11T11:45:07.782Z,33.41
2022-08-11T11:48:12.262Z,33.36
2022-08-11T11:51:15.184Z,33.19
2022-08-11T11:54:18.740Z,33.01
2022-08-11T11:57:58.961Z,33.31
2022-08-11T12:01:20.108Z,33.78
2022-08-11T12:04:23.772Z,33.52
2022-08-11T12:07:44.167Z,34.06
2022-08-11T12:10:49.479Z,34.30
2022-08-11T12:13:53.622Z,34.22
2022-08-11T12:16:58.511Z,32.28
2022-08-11T12:20:01.620Z,33.07
2022-08-11T12:23:22.604Z,33.63
2022-08-11T12:27:16.519Z,33.40
2022-08-11T12:30:17.424Z,33.89
2022-08-11T12:33:24.144Z,33.27
2022-08-11T12:36:27.268Z,33.61
2022-08-11T12:40:17.030Z,33.92
2022-08-11T12:43:57.225Z,34.14
2022-08-11T12:47:02.414Z,33.38
2022-08-11T12:50:25.399Z,32.64
2022-08-11T12:53:30.649Z,32.78
2022-08-11T12:56:56.721Z,33.56
2022-08-11T13:00:19.000Z,33.69
2022-08-11T13:03:40.910Z,33.91
2022-08-11T13:06:44.895Z,34.21
2022-08-11T13:09:48.072Z,34.51
2022-08-11T13:12:49.850Z,33.54
2022-08-11T13:15:53.095Z,33.24
2022-08-11T13:18:57.162Z,33.12
2022-08-11T13:22:02.462Z,32.62
2022-08-11T13:25:06.150Z,32.52
2022-08-11T13:28:10.991Z,32.85
2022-08-11T13:31:15.027Z,32.70
2022-08-11T13:34:19.790Z,33.08
2022-08-11T13:38:19.473Z,33.30
2022-08-11T13:40:55.810Z,33.32
2022-08-11T13:43:59.377Z,33.55
2022-08-11T13:47:07.685Z,33.66
2022-08-11T13:50:12.544Z,33.15
2022-08-11T13:53:20.638Z,33.48
2022-08-11T13:56:24.083Z,33.07
2022-08-11T13:59:30.071Z,33.54
2022-08-11T14:02:34.553Z,33.98
2022-08-11T14:05:40.944Z,34.56
2022-08-11T14:08:54.675Z,33.75
2022-08-11T14:12:23.611Z,32.92
2022-08-11T14:15:32.084Z,32.17
2022-08-11T14:18:36.000Z,32.32
2022-08-11T14:22:06.533Z,32.54
2022-08-11T14:25:12.655Z,33.03
2022-08-11T14:28:34.081Z,32.87
2022-08-11T14:31:39.969Z,33.68
2022-08-11T14:34:44.731Z,33.75
2022-08-11T14:37:48.631Z,33.12
2022-08-11T14:41:11.151Z,32.62
2022-08-11T14:44:31.413Z,32.52
2022-08-11T14:47:36.901Z,33.21
2022-08-11T14:50:40.349Z,32.93
2022-08-11T14:53:52.048Z,32.53
2022-08-11T14:57:03.228Z,32.25
2022-08-11T15:00:08.175Z,31.98
2022-08-11T15:03:13.725Z,31.57
2022-08-11T15:06:16.997Z,31.38
2022-08-11T15:09:19.918Z,31.66
2022-08-11T15:12:32.617Z,31.63
2022-08-11T15:16:08.619Z,31.70
2022-08-11T15:19:12.989Z,31.64
2022-08-11T15:22:33.350Z,31.35
2022-08-11T15:25:36.906Z,31.20
2022-08-11T15:29:04.584Z,31.06
2022-08-11T15:32:26.314Z,30.80
2022-08-11T15:35:47.068Z,30.47
2022-08-11T15:38:56.162Z,30.27
2022-08-11T15:42:20.212Z,30.17
2022-08-11T15:45:43.347Z,30.34
2022-08-11T15:48:52.672Z,30.48
2022-08-11T15:52:02.279Z,30.44
2022-08-11T15:55:08.503Z,30.20
2022-08-11T15:58:32.120Z,30.11
2022-08-11T16:01:56.502Z,29.93
2022-08-11T16:05:02.529Z,29.57
2022-08-11T16:08:05.780Z,29.45
2022-08-11T16:11:09.663Z,29.57
2022-08-11T16:14:31.337Z,29.48
2022-08-11T16:17:41.173Z,29.37
2022-08-11T16:20:46.110Z,29.38
2022-08-11T16:23:50.810Z,29.33
2022-08-11T16:27:10.788Z,29.50
2022-08-11T16:30:16.224Z,29.49
2022-08-11T16:33:49.962Z,29.51
2022-08-11T16:37:04.550Z,29.44
2022-08-11T16:40:10.291Z,29.33
2022-08-11T16:43:35.742Z,29.24
2022-08-11T16:46:56.158Z,29.23
2022-08-11T16:50:00.738Z,29.31
2022-08-11T16:53:03.782Z,29.28
2022-08-11T16:56:08.704Z,29.28
2022-08-11T16:59:17.123Z,29.18
2022-08-11T17:02:37.956Z,29.23
2022-08-11T17:06:03.897Z,29.28
2022-08-11T17:09:25.260Z,28.99
2022-08-11T17:12:48.877Z,28.85
2022-08-11T17:16:08.272Z,28.64
2022-08-11T17:19:13.901Z,28.53
2022-08-11T17:22:37.679Z,28.46
2022-08-11T17:25:58.763Z,28.15
2022-08-11T17:29:05.615Z,28.12
2022-08-11T17:32:31.284Z,28.08
2022-08-11T17:35:53.993Z,27.90
2022-08-11T17:38:58.049Z,27.76
2022-08-11T17:42:19.670Z,27.63
2022-08-11T17:45:42.052Z,27.44
2022-08-11T17:48:48.254Z,27.30
2022-08-11T17:52:09.753Z,27.17
2022-08-11T17:55:51.715Z,27.06
2022-08-11T17:59:13.402Z,26.87
2022-08-11T18:02:35.262Z,26.70
2022-08-11T18:05:40.782Z,26.62
2022-08-11T18:09:05.035Z,26.43
2022-08-11T18:12:28.733Z,26.17
2022-08-11T18:15:50.089Z,25.98
2022-08-11T18:19:16.446Z,25.74
2022-08-11T18:22:41.210Z,25.42
2022-08-11T18:26:07.640Z,25.00
2022-08-11T18:29:30.128Z,24.69
2022-08-11T18:33:09.173Z,24.42
2022-08-11T18:36:40.042Z,24.16
2022-08-11T18:40:03.989Z,23.89
2022-08-11T18:43:27.366Z,23.88
2022-08-11T18:46:53.150Z,23.89
2022-08-11T18:50:21.097Z,23.75
2022-08-11T18:54:02.741Z,23.61
2022-08-11T18:57:26.666Z,23.53
2022-08-11T19:00:49.221Z,23.39
2022-08-11T19:04:17.269Z,23.07
2022-08-11T19:07:40.207Z,23.02
2022-08-11T19:11:02.729Z,22.88
2022-08-11T19:14:24.652Z,22.85
2022-08-11T19:17:46.222Z,22.64
2022-08-11T19:21:07.765Z,22.49
2022-08-11T19:24:32.244Z,22.25
2022-08-11T19:27:53.197Z,22.00
2022-08-11T19:31:14.583Z,21.76
2022-08-11T19:34:37.390Z,21.65
2022-08-11T19:37:59.466Z,21.57
2022-08-11T19:41:52.015Z,21.57
2022-08-11T19:45:00.864Z,21.56
2022-08-11T19:48:31.762Z,21.41
2022-08-11T19:51:55.544Z,21.22
2022-08-11T19:55:17.777Z,21.12
2022-08-11T19:58:38.830Z,20.93
2022-08-11T20:02:01.248Z,20.78
2022-08-11T20:05:34.406Z,20.60
2022-08-11T20:08:59.087Z,20.51
2022-08-11T20:12:24.212Z,20.48
2022-08-11T20:15:45.710Z,20.26
2022-08-11T20:19:08.637Z,20.04
2022-08-11T20:22:30.053Z,19.85
2022-08-11T20:25:53.169Z,19.78
2022-08-11T20:29:18.645Z,19.88
2022-08-11T20:32:39.646Z,20.05
2022-08-11T20:36:00.174Z,20.12
2022-08-11T20:39:21.586Z,20.12
2022-08-11T20:42:42.935Z,20.08
2022-08-11T20:46:07.984Z,20.05
2022-08-11T20:49:44.999Z,20.00
2022-08-11T20:53:10.752Z,19.91
2022-08-11T20:56:32.280Z,19.82
2022-08-11T20:59:56.702Z,19.71
2022-08-11T21:03:35.550Z,19.56
2022-08-11T21:06:59.055Z,19.37
2022-08-11T21:10:23.777Z,19.32
2022-08-11T21:13:48.399Z,19.23
2022-08-11T21:17:27.934Z,19.01
2022-08-11T21:20:51.253Z,18.83
2022-08-11T21:24:15.622Z,18.71
2022-08-11T21:27:38.989Z,18.64
2022-08-11T21:30:59.894Z,18.51
2022-08-11T21:34:21.787Z,18.37
2022-08-11T21:37:44.413Z,18.25
2022-08-11T21:41:11.317Z,18.13
2022-08-11T21:44:32.602Z,17.98
2022-08-11T21:48:00.720Z,17.90
2022-08-11T21:51:21.802Z,17.86
2022-08-11T21:54:44.390Z,17.58
2022-08-11T21:58:06.214Z,17.42
2022-08-11T22:01:26.138Z,17.37
2022-08-11T22:04:49.235Z,17.26
2022-08-11T22:08:10.614Z,17.20
2022-08-11T22:11:33.122Z,17.17
2022-08-11T22:14:54.047Z,17.11
2022-08-11T22:18:14.437Z,17.03
2022-08-11T22:22:01.508Z,17.13
2022-08-11T22:25:18.490Z,17.17
2022-08-11T22:28:40.427Z,17.27
2022-08-11T22:32:01.427Z,17.26
2022-08-11T22:35:22.404Z,17.18
2022-08-11T22:38:44.319Z,17.10
2022-08-11T22:42:05.094Z,16.95
2022-08-11T22:45:28.055Z,16.90
2022-08-11T22:48:49.547Z,16.85
2022-08-11T22:52:09.906Z,16.71
2022-08-11T22:55:31.317Z,16.64
2022-08-11T22:58:52.303Z,16.59
2022-08-11T23:02:13.982Z,16.07
2022-08-11T23:05:35.306Z,15.57
2022-08-11T23:08:56.172Z,15.44
2022-08-11T23:12:16.916Z,15.57
2022-08-11T23:15:39.226Z,15.62
2022-08-11T23:19:03.767Z,15.65
2022-08-11T23:22:24.576Z,15.51
2022-08-11T23:26:05.233Z,15.45
2022-08-11T23:29:26.603Z,15.39
2022-08-11T23:32:49.425Z,15.48
2022-08-11T23:36:11.618Z,15.51
2022-08-11T23:39:56.697Z,15.26
2022-08-11T23:43:16.837Z,15.08
2022-08-11T23:46:39.156Z,15.03
2022-08-11T23:50:00.540Z,15.04
2022-08-11T23:53:23.552Z,15.06
2022-08-11T23:56:43.745Z,14.95
